Time;durP1;ratioP1;P1;durP2;ratioP2;P2;SDS_P1;SDS_P2;PMS_P1;PMS_P2;Temp;Humidity;BMP_temperature;BMP_pressure;BME280_temperature;BME280_humidity;BME280_pressure;Samples;Min_cycle;Max_cycle;Signal;HPM_P1;HPM_P2
2024/04/10 00:02:09;;;;;;;12.73;7.60;;;;;;;;;;5415346;26;20000;-65
2024/04/10 00:04:35;;;;;;;10.43;6.63;;;;;;;;;;5415728;26;20347;-66
2024/04/10 00:07:01;;;;;;;11.77;6.75;;;;;;;;;;5413907;26;20007;-67
2024/04/10 00:09:27;;;;;;;10.70;6.70;;;;;;;;;;5413708;26;20478;-67
2024/04/10 00:11:53;;;;;;;12.00;6.20;;;;;;;;;;5415191;26;20000;-66
2024/04/10 00:14:19;;;;;;;9.50;6.10;;;;;;;;;;5405810;26;20003;-66
2024/04/10 00:16:45;;;;;;;10.07;5.97;;;;;;;;;;5413701;26;20007;-67
2024/04/10 00:19:11;;;;;;;13.27;6.75;;;;;;;;;;5415577;26;20482;-67
2024/04/10 00:21:37;;;;;;;8.25;5.28;;;;;;;;;;5415206;26;20000;-66
2024/04/10 00:24:04;;;;;;;9.60;5.85;;;;;;;;;;5414794;26;20014;-66
2024/04/10 00:26:30;;;;;;;8.68;4.90;;;;;;;;;;5414656;26;20000;-66
2024/04/10 00:28:56;;;;;;;9.23;5.28;;;;;;;;;;5414770;26;20508;-68
2024/04/10 00:31:22;;;;;;;6.90;4.20;;;;;;;;;;5414793;26;20003;-67
2024/04/10 00:33:48;;;;;;;7.05;4.82;;;;;;;;;;5414875;26;20000;-67
2024/04/10 00:36:14;;;;;;;8.50;5.05;;;;;;;;;;5414605;26;20347;-67
2024/04/10 00:38:40;;;;;;;10.55;5.05;;;;;;;;;;5414993;26;19996;-67
2024/04/10 00:41:07;;;;;;;7.15;4.22;;;;;;;;;;5414781;26;20003;-68
2024/04/10 00:43:33;;;;;;;8.32;4.53;;;;;;;;;;5414308;26;20052;-65
2024/04/10 00:46:15;;;;;;;11.25;4.80;;;;;;;;;;5414832;26;20502;-66
2024/04/10 00:48:41;;;;;;;9.63;4.57;;;;;;;;;;5415242;26;20011;-67
2024/04/10 00:51:08;;;;;;;7.68;4.75;;;;;;;;;;5414844;26;20007;-66
2024/04/10 00:53:35;;;;;;;6.13;4.13;;;;;;;;;;5414729;26;20466;-67
2024/04/10 00:56:01;;;;;;;8.40;4.28;;;;;;;;;;5414785;26;20351;-67
2024/04/10 00:58:28;;;;;;;6.93;4.50;;;;;;;;;;5414897;26;20447;-66
2024/04/10 01:00:54;;;;;;;6.22;3.78;;;;;;;;;;5415101;26;20000;-65
2024/04/10 01:03:21;;;;;;;6.38;4.07;;;;;;;;;;5414795;26;20004;-66
2024/04/10 01:05:58;;;;;;;6.20;3.83;;;;;;;;;;5414411;26;20004;-65
2024/04/10 01:08:24;;;;;;;6.28;4.00;;;;;;;;;;5414833;26;20061;-64
2024/04/10 01:10:51;;;;;;;5.55;3.55;;;;;;;;;;5414381;26;20003;-66
2024/04/10 01:13:20;;;;;;;6.03;3.53;;;;;;;;;;5404293;26;20079;-65
2024/04/10 01:15:46;;;;;;;6.18;3.33;;;;;;;;;;5414037;26;20003;-64
2024/04/10 01:18:12;;;;;;;6.53;4.00;;;;;;;;;;5412730;26;20010;-65
2024/04/10 01:20:38;;;;;;;5.70;3.50;;;;;;;;;;5413793;26;20003;-65
2024/04/10 01:23:04;;;;;;;6.72;3.33;;;;;;;;;;5413419;26;20003;-65
2024/04/10 01:25:30;;;;;;;5.13;2.80;;;;;;;;;;5414069;26;20004;-65
2024/04/10 01:27:56;;;;;;;7.82;3.08;;;;;;;;;;5415845;26;20004;-65
2024/04/10 01:30:23;;;;;;;7.05;2.67;;;;;;;;;;5386411;26;20015;-65
2024/04/10 01:32:49;;;;;;;3.97;2.92;;;;;;;;;;5414233;26;20003;-67
2024/04/10 01:35:15;;;;;;;4.85;2.80;;;;;;;;;;5414752;26;20100;-67
2024/04/10 01:37:41;;;;;;;7.28;3.50;;;;;;;;;;5414468;26;19999;-67
2024/04/10 01:40:07;;;;;;;6.72;3.10;;;;;;;;;;5414662;26;20007;-67
2024/04/10 01:42:33;;;;;;;3.80;2.40;;;;;;;;;;5414306;26;20020;-67
2024/04/10 01:44:59;;;;;;;3.70;2.60;;;;;;;;;;5414121;26;19999;-67
2024/04/10 01:47:25;;;;;;;5.40;2.38;;;;;;;;;;5414005;26;20085;-65
2024/04/10 01:49:51;;;;;;;4.85;2.92;;;;;;;;;;5414485;26;20477;-67
2024/04/10 01:52:17;;;;;;;8.63;3.10;;;;;;;;;;5413779;26;20386;-67
2024/04/10 01:54:44;;;;;;;3.97;2.53;;;;;;;;;;5414255;26;20494;-67
2024/04/10 01:57:10;;;;;;;7.22;2.85;;;;;;;;;;5413560;26;20032;-68
2024/04/10 01:59:36;;;;;;;5.07;2.63;;;;;;;;;;5413858;26;20004;-65
2024/04/10 02:02:02;;;;;;;6.65;2.90;;;;;;;;;;5413317;26;20014;-66
2024/04/10 02:04:29;;;;;;;4.53;2.67;;;;;;;;;;5413343;26;20458;-67
2024/04/10 02:06:55;;;;;;;6.68;2.60;;;;;;;;;;5411431;26;20017;-66
2024/04/10 02:09:21;;;;;;;6.88;3.17;;;;;;;;;;5412639;26;20003;-66
2024/04/10 02:11:47;;;;;;;3.65;2.28;;;;;;;;;;5410489;26;20451;-66
2024/04/10 02:14:13;;;;;;;9.00;2.58;;;;;;;;;;5402696;26;20004;-66
2024/04/10 02:16:40;;;;;;;7.43;2.83;;;;;;;;;;5412524;26;20068;-67
2024/04/10 02:19:06;;;;;;;7.07;2.50;;;;;;;;;;5412121;26;20431;-66
2024/04/10 02:21:32;;;;;;;17.70;2.67;;;;;;;;;;5412057;26;20018;-66
2024/04/10 02:23:58;;;;;;;4.85;1.55;;;;;;;;;;5411986;26;20428;-67
2024/04/10 02:26:24;;;;;;;29.30;1.88;;;;;;;;;;5412061;26;20023;-67
2024/04/10 02:28:51;;;;;;;3.35;1.42;;;;;;;;;;5411081;26;20485;-68
2024/04/10 02:31:17;;;;;;;3.03;1.15;;;;;;;;;;5412363;26;20067;-68
2024/04/10 02:33:43;;;;;;;3.78;1.38;;;;;;;;;;5412014;26;20504;-68
2024/04/10 02:36:09;;;;;;;2.13;1.10;;;;;;;;;;5412231;26;20004;-67
2024/04/10 02:38:36;;;;;;;2.50;1.08;;;;;;;;;;5412005;26;20483;-67
2024/04/10 02:41:02;;;;;;;4.15;0.95;;;;;;;;;;5411941;26;20068;-67
2024/04/10 02:43:28;;;;;;;3.58;1.15;;;;;;;;;;5411924;26;20007;-68
2024/04/10 02:45:56;;;;;;;3.63;1.35;;;;;;;;;;5412456;26;20013;-68
2024/04/10 02:48:22;;;;;;;2.50;1.13;;;;;;;;;;5412050;26;20000;-67
2024/04/10 02:50:48;;;;;;;2.80;1.35;;;;;;;;;;5411822;26;20018;-67
2024/04/10 02:53:14;;;;;;;2.22;1.00;;;;;;;;;;5411430;26;20018;-67
2024/04/10 02:55:44;;;;;;;3.33;1.00;;;;;;;;;;5412165;26;20426;-67
2024/04/10 02:58:13;;;;;;;2.53;1.00;;;;;;;;;;5411450;26;20011;-67
2024/04/10 03:00:45;;;;;;;3.55;1.45;;;;;;;;;;5411677;26;20073;-67
2024/04/10 03:03:12;;;;;;;2.22;1.05;;;;;;;;;;5411293;26;20050;-68
2024/04/10 03:05:39;;;;;;;2.63;1.23;;;;;;;;;;5411607;26;20168;-66
2024/04/10 03:08:05;;;;;;;3.35;0.93;;;;;;;;;;5411557;26;20003;-67
2024/04/10 03:10:31;;;;;;;2.33;0.88;;;;;;;;;;5411446;26;20100;-66
2024/04/10 03:12:57;;;;;;;2.95;0.85;;;;;;;;;;5401486;26;20000;-68
2024/04/10 03:15:23;;;;;;;3.28;1.10;;;;;;;;;;5411629;26;20007;-68
2024/04/10 03:17:50;;;;;;;2.42;1.20;;;;;;;;;;5411614;26;20549;-68
2024/04/10 03:20:17;;;;;;;2.78;1.48;;;;;;;;;;5411599;26;20011;-68
2024/04/10 03:22:43;;;;;;;3.70;1.08;;;;;;;;;;5411981;26;20342;-67
2024/04/10 03:25:09;;;;;;;2.60;1.15;;;;;;;;;;5411648;26;20307;-68
2024/04/10 03:27:35;;;;;;;2.58;0.80;;;;;;;;;;5418767;26;20003;-68
2024/04/10 03:30:01;;;;;;;3.15;0.95;;;;;;;;;;5423392;26;20015;-70
2024/04/10 03:32:27;;;;;;;6.75;1.42;;;;;;;;;;5422615;26;20059;-66
2024/04/10 03:34:53;;;;;;;4.38;1.00;;;;;;;;;;5411788;26;20007;-66
2024/04/10 03:37:19;;;;;;;5.75;1.15;;;;;;;;;;5425683;26;19996;-66
2024/04/10 03:39:45;;;;;;;3.10;1.30;;;;;;;;;;5405145;26;20007;-66
2024/04/10 03:42:12;;;;;;;1.60;0.95;;;;;;;;;;5416075;26;20431;-64
2024/04/10 03:44:38;;;;;;;3.58;0.80;;;;;;;;;;5399829;26;20004;-66
2024/04/10 03:47:04;;;;;;;3.25;0.85;;;;;;;;;;5414563;26;20000;-65
2024/04/10 03:49:30;;;;;;;3.20;0.98;;;;;;;;;;5403848;26;20086;-66
2024/04/10 03:51:56;;;;;;;2.75;1.00;;;;;;;;;;5414408;26;20010;-66
2024/04/10 03:54:22;;;;;;;5.07;1.38;;;;;;;;;;5414462;26;20704;-65
2024/04/10 03:56:48;;;;;;;2.55;0.90;;;;;;;;;;5411938;26;20035;-65
2024/04/10 03:59:14;;;;;;;2.72;1.00;;;;;;;;;;5414594;26;20323;-66
2024/04/10 04:01:41;;;;;;;2.78;0.88;;;;;;;;;;5414380;26;20105;-65
2024/04/10 04:04:07;;;;;;;3.63;0.93;;;;;;;;;;5414483;26;20000;-68
2024/04/10 04:06:33;;;;;;;1.85;0.90;;;;;;;;;;5414503;26;19996;-67
2024/04/10 04:08:59;;;;;;;4.47;1.05;;;;;;;;;;5414058;26;20014;-66
2024/04/10 04:11:25;;;;;;;2.53;1.20;;;;;;;;;;5412395;26;19995;-65
2024/04/10 04:13:51;;;;;;;2.22;0.77;;;;;;;;;;5387833;26;20050;-66
2024/04/10 04:16:18;;;;;;;2.20;0.82;;;;;;;;;;5398866;26;20007;-66
2024/04/10 04:18:44;;;;;;;2.47;1.02;;;;;;;;;;5401990;26;20427;-66
2024/04/10 04:21:10;;;;;;;2.38;0.90;;;;;;;;;;5384736;26;20032;-66
2024/04/10 04:23:36;;;;;;;2.67;0.70;;;;;;;;;;5401509;26;20078;-66
2024/04/10 04:26:02;;;;;;;1.73;0.60;;;;;;;;;;5409099;26;20003;-66
2024/04/10 04:28:28;;;;;;;1.20;0.60;;;;;;;;;;5414152;26;19999;-66
2024/04/10 04:30:54;;;;;;;1.25;0.60;;;;;;;;;;5413898;26;20404;-66
2024/04/10 04:33:21;;;;;;;0.60;0.28;;;;;;;;;;5413765;26;20434;-67
2024/04/10 04:35:47;;;;;;;0.95;0.40;;;;;;;;;;5413925;26;20003;-67
2024/04/10 04:38:13;;;;;;;1.63;0.63;;;;;;;;;;5413560;26;20502;-67
2024/04/10 04:40:39;;;;;;;2.53;0.77;;;;;;;;;;5416390;26;20044;-66
2024/04/10 04:43:08;;;;;;;1.92;0.80;;;;;;;;;;5416003;26;20078;-67
2024/04/10 04:45:38;;;;;;;0.85;0.35;;;;;;;;;;5416322;26;19995;-68
2024/04/10 04:48:05;;;;;;;1.13;0.47;;;;;;;;;;5388985;26;20019;-69
2024/04/10 04:50:31;;;;;;;1.13;0.45;;;;;;;;;;5386479;26;20003;-65
2024/04/10 04:52:57;;;;;;;1.08;0.60;;;;;;;;;;5398517;26;19996;-66
2024/04/10 04:55:23;;;;;;;0.20;0.20;;;;;;;;;;5398747;26;20028;-66
2024/04/10 04:57:49;;;;;;;1.20;0.52;;;;;;;;;;5376131;26;20004;-67
2024/04/10 05:00:16;;;;;;;9.68;1.42;;;;;;;;;;5398956;26;19995;-67
2024/04/10 05:02:42;;;;;;;8.50;0.60;;;;;;;;;;5416214;26;20343;-67
2024/04/10 05:05:15;;;;;;;7.63;1.50;;;;;;;;;;5384043;26;20470;-67
2024/04/10 05:07:44;;;;;;;5.25;1.30;;;;;;;;;;5379751;26;20004;-66
2024/04/10 05:10:10;;;;;;;2.75;1.25;;;;;;;;;;5406920;26;20000;-65
2024/04/10 05:12:41;;;;;;;3.70;1.00;;;;;;;;;;5387752;26;20012;-66
2024/04/10 05:15:07;;;;;;;3.13;0.73;;;;;;;;;;5412055;26;20003;-66
2024/04/10 05:17:33;;;;;;;3.70;1.10;;;;;;;;;;5414081;26;20004;-64
2024/04/10 05:19:59;;;;;;;3.42;0.85;;;;;;;;;;5415753;26;20003;-65
2024/04/10 05:22:26;;;;;;;6.50;1.45;;;;;;;;;;5415418;26;20018;-65
2024/04/10 05:24:52;;;;;;;31.63;3.67;;;;;;;;;;5415357;26;20031;-66
2024/04/10 05:27:22;;;;;;;32.50;6.43;;;;;;;;;;5402377;26;20043;-65
2024/04/10 05:29:53;;;;;;;17.83;3.15;;;;;;;;;;5407447;26;20007;-65
2024/04/10 05:32:19;;;;;;;20.60;2.25;;;;;;;;;;5403538;26;19999;-66
2024/04/10 05:34:45;;;;;;;10.25;1.60;;;;;;;;;;5397378;26;20072;-66
2024/04/10 05:37:11;;;;;;;13.27;2.20;;;;;;;;;;5411425;26;19995;-66
2024/04/10 05:39:37;;;;;;;11.13;1.77;;;;;;;;;;5415593;26;19995;-66
2024/04/10 05:42:06;;;;;;;11.23;1.80;;;;;;;;;;5403217;26;20003;-66
2024/04/10 05:44:33;;;;;;;3.97;1.92;;;;;;;;;;5415556;26;20009;-65
2024/04/10 05:47:00;;;;;;;5.70;1.63;;;;;;;;;;5399141;26;20046;-66
2024/04/10 05:49:26;;;;;;;5.15;1.20;;;;;;;;;;5412745;26;19996;-64
2024/04/10 05:51:52;;;;;;;15.73;1.45;;;;;;;;;;5415299;26;20000;-63
2024/04/10 05:54:18;;;;;;;18.60;2.38;;;;;;;;;;5415168;26;20007;-64
2024/04/10 05:56:44;;;;;;;11.32;2.28;;;;;;;;;;5415244;26;20587;-64
2024/04/10 05:59:10;;;;;;;12.10;2.30;;;;;;;;;;5414883;26;20036;-64
2024/04/10 06:01:36;;;;;;;9.18;2.17;;;;;;;;;;5414988;26;19999;-64
2024/04/10 06:04:02;;;;;;;8.85;1.60;;;;;;;;;;5414910;26;20068;-65
2024/04/10 06:06:28;;;;;;;11.13;2.33;;;;;;;;;;5415025;26;20067;-64
2024/04/10 06:08:54;;;;;;;6.10;1.75;;;;;;;;;;5414949;26;19995;-65
2024/04/10 06:11:20;;;;;;;9.85;2.08;;;;;;;;;;5409551;26;20002;-64
2024/04/10 06:13:51;;;;;;;8.88;2.55;;;;;;;;;;5391167;26;20439;-66
2024/04/10 06:16:19;;;;;;;4.55;2.20;;;;;;;;;;5415371;26;20032;-65
2024/04/10 06:18:45;;;;;;;6.32;2.13;;;;;;;;;;5432629;21;20015;-65
2024/04/10 06:21:11;;;;;;;5.50;2.20;;;;;;;;;;5413583;26;20041;-65
2024/04/10 06:23:37;;;;;;;4.75;2.28;;;;;;;;;;5412200;26;20015;-65
2024/04/10 06:26:03;;;;;;;5.30;2.00;;;;;;;;;;5416271;26;20015;-65
2024/04/10 06:28:31;;;;;;;5.53;1.95;;;;;;;;;;5415132;26;20003;-65
2024/04/10 06:30:57;;;;;;;7.22;2.60;;;;;;;;;;5414921;26;20072;-65
2024/04/10 06:33:23;;;;;;;9.55;2.33;;;;;;;;;;5413016;26;19995;-68
2024/04/10 06:35:49;;;;;;;11.43;1.65;;;;;;;;;;5414792;26;20017;-66
2024/04/10 06:38:15;;;;;;;6.53;1.55;;;;;;;;;;5414223;26;20014;-66
2024/04/10 06:40:47;;;;;;;3.60;1.30;;;;;;;;;;5414470;26;20004;-63
2024/04/10 06:43:13;;;;;;;12.40;2.63;;;;;;;;;;5414072;26;20003;-63
2024/04/10 06:45:39;;;;;;;8.10;1.40;;;;;;;;;;5414115;26;20022;-63
2024/04/10 06:48:05;;;;;;;5.55;1.80;;;;;;;;;;5414451;26;19999;-63
2024/04/10 06:50:31;;;;;;;7.85;1.50;;;;;;;;;;5414254;26;20007;-63
2024/04/10 06:52:57;;;;;;;4.03;1.33;;;;;;;;;;5414036;26;20084;-63
2024/04/10 06:55:23;;;;;;;5.30;1.55;;;;;;;;;;5407823;26;20018;-64
2024/04/10 06:57:51;;;;;;;8.38;2.22;;;;;;;;;;5383579;26;20039;-65
2024/04/10 07:00:17;;;;;;;12.85;1.88;;;;;;;;;;5401487;26;20094;-62
2024/04/10 07:02:43;;;;;;;8.13;1.85;;;;;;;;;;5411320;26;19999;-62
2024/04/10 07:05:09;;;;;;;6.47;1.90;;;;;;;;;;5400130;26;20043;-61
2024/04/10 07:07:35;;;;;;;7.13;1.95;;;;;;;;;;5402072;26;20015;-63
2024/04/10 07:10:03;;;;;;;17.13;2.45;;;;;;;;;;5413242;26;19995;-63
2024/04/10 07:12:29;;;;;;;11.40;1.80;;;;;;;;;;5408206;26;20409;-63
2024/04/10 07:14:56;;;;;;;12.07;1.85;;;;;;;;;;5407034;26;20035;-58
2024/04/10 07:17:22;;;;;;;11.30;2.30;;;;;;;;;;5416431;26;20004;-58
2024/04/10 07:19:48;;;;;;;9.88;1.92;;;;;;;;;;5416746;26;19995;-58
2024/04/10 07:22:14;;;;;;;16.50;2.85;;;;;;;;;;5417135;26;20010;-59
2024/04/10 07:24:40;;;;;;;25.58;3.42;;;;;;;;;;5417473;26;19999;-64
2024/04/10 07:27:05;;;;;;;15.68;3.53;;;;;;;;;;5416953;26;19996;-64
2024/04/10 07:29:32;;;;;;;48.35;4.45;;;;;;;;;;5417143;26;20702;-63
2024/04/10 07:31:57;;;;;;;48.55;4.50;;;;;;;;;;5417254;26;20007;-65
2024/04/10 07:34:24;;;;;;;36.05;3.60;;;;;;;;;;5403142;26;19996;-67
2024/04/10 07:36:50;;;;;;;40.03;3.55;;;;;;;;;;5404159;26;20006;-64
2024/04/10 07:39:16;;;;;;;32.45;4.50;;;;;;;;;;5414026;26;20097;-63
2024/04/10 07:41:43;;;;;;;30.77;3.35;;;;;;;;;;5416875;26;20000;-61
2024/04/10 07:44:09;;;;;;;51.50;5.43;;;;;;;;;;5403635;26;19996;-63
2024/04/10 07:46:35;;;;;;;28.55;3.53;;;;;;;;;;5417366;26;20011;-63
2024/04/10 07:49:02;;;;;;;14.95;3.08;;;;;;;;;;5418090;26;20031;-62
2024/04/10 07:51:28;;;;;;;54.83;5.80;;;;;;;;;;5402585;26;20003;-63
2024/04/10 07:53:54;;;;;;;42.17;6.82;;;;;;;;;;5417249;26;20006;-63
2024/04/10 07:56:20;;;;;;;17.00;2.75;;;;;;;;;;5415859;26;19996;-60
2024/04/10 07:58:46;;;;;;;9.13;1.98;;;;;;;;;;5409062;26;19995;-61
2024/04/10 08:01:13;;;;;;;10.98;1.88;;;;;;;;;;5417157;26;20006;-61
2024/04/10 08:03:39;;;;;;;15.65;2.72;;;;;;;;;;5415274;26;20398;-61
2024/04/10 08:06:07;;;;;;;12.68;2.35;;;;;;;;;;5417059;26;20010;-61
2024/04/10 08:08:33;;;;;;;4.97;1.67;;;;;;;;;;5411216;26;19995;-60
2024/04/10 08:11:02;;;;;;;6.78;1.55;;;;;;;;;;5416770;26;20011;-59
2024/04/10 08:13:29;;;;;;;12.25;2.20;;;;;;;;;;5406828;26;20003;-62
2024/04/10 08:15:59;;;;;;;11.43;1.83;;;;;;;;;;5417146;26;20000;-62
2024/04/10 08:18:31;;;;;;;9.75;2.15;;;;;;;;;;5416829;26;20012;-60
2024/04/10 08:21:07;;;;;;;12.55;2.50;;;;;;;;;;5416823;26;19999;-60
2024/04/10 08:23:34;;;;;;;8.45;2.13;;;;;;;;;;5416075;26;20708;-63
2024/04/10 08:26:01;;;;;;;13.88;2.25;;;;;;;;;;5402178;26;20000;-65
2024/04/10 08:28:27;;;;;;;9.80;1.77;;;;;;;;;;5415566;26;20014;-64
2024/04/10 08:30:56;;;;;;;10.88;1.52;;;;;;;;;;5416641;26;20011;-61
2024/04/10 08:33:26;;;;;;;7.60;1.52;;;;;;;;;;5416131;26;20007;-61
2024/04/10 08:35:59;;;;;;;5.55;1.80;;;;;;;;;;5403802;26;20072;-63
2024/04/10 08:38:25;;;;;;;8.40;2.10;;;;;;;;;;5416627;26;20010;-61
2024/04/10 08:40:53;;;;;;;6.28;1.90;;;;;;;;;;5416479;26;20018;-64
2024/04/10 08:43:20;;;;;;;4.78;1.50;;;;;;;;;;5412879;26;19996;-62
2024/04/10 08:45:46;;;;;;;6.82;1.08;;;;;;;;;;5416505;26;20454;-62
2024/04/10 08:48:12;;;;;;;4.75;1.70;;;;;;;;;;5416325;26;20000;-63
2024/04/10 08:50:39;;;;;;;6.20;1.33;;;;;;;;;;5416373;26;19999;-63
2024/04/10 08:53:05;;;;;;;5.07;1.40;;;;;;;;;;5415935;26;20036;-61
2024/04/10 08:55:34;;;;;;;4.80;1.85;;;;;;;;;;5416303;26;20018;-63
2024/04/10 08:58:00;;;;;;;3.40;1.27;;;;;;;;;;5416473;26;20016;-63
2024/04/10 09:00:26;;;;;;;3.90;1.15;;;;;;;;;;5416144;26;20403;-62
2024/04/10 09:02:52;;;;;;;7.30;1.80;;;;;;;;;;5415755;26;20003;-63
2024/04/10 09:05:25;;;;;;;4.03;1.63;;;;;;;;;;5416015;26;20018;-62
2024/04/10 09:08:00;;;;;;;4.97;1.48;;;;;;;;;;5416082;26;20079;-62
2024/04/10 09:10:26;;;;;;;2.60;1.40;;;;;;;;;;5391935;26;19995;-61
2024/04/10 09:13:01;;;;;;;5.82;1.80;;;;;;;;;;5397335;26;20016;-63
2024/04/10 09:15:27;;;;;;;6.35;1.63;;;;;;;;;;5388594;26;20014;-63
2024/04/10 09:17:55;;;;;;;4.45;1.05;;;;;;;;;;5412280;26;19996;-63
2024/04/10 09:20:21;;;;;;;4.15;1.30;;;;;;;;;;5415708;26;20041;-63
2024/04/10 09:22:59;;;;;;;4.30;1.67;;;;;;;;;;5414005;26;20094;-62
2024/04/10 09:25:25;;;;;;;4.82;0.90;;;;;;;;;;5413706;26;20372;-61
2024/04/10 09:27:58;;;;;;;2.70;1.25;;;;;;;;;;5407652;26;20004;-63
2024/04/10 09:30:24;;;;;;;3.38;1.60;;;;;;;;;;5415779;26;20004;-62
2024/04/10 09:32:51;;;;;;;4.18;0.98;;;;;;;;;;5415389;26;20010;-62
2024/04/10 09:35:19;;;;;;;5.15;1.25;;;;;;;;;;5402860;26;20001;-63
2024/04/10 09:37:46;;;;;;;1.92;1.00;;;;;;;;;;5378122;26;20000;-62
2024/04/10 09:40:12;;;;;;;3.63;1.60;;;;;;;;;;5379887;26;20012;-62
2024/04/10 09:42:40;;;;;;;7.75;1.38;;;;;;;;;;5385942;26;20000;-62
2024/04/10 09:45:15;;;;;;;2.15;0.95;;;;;;;;;;5380837;26;20031;-63
2024/04/10 09:47:42;;;;;;;2.95;1.00;;;;;;;;;;5404693;26;20003;-62
2024/04/10 09:50:10;;;;;;;7.55;1.40;;;;;;;;;;5389322;26;20008;-62
2024/04/10 09:52:36;;;;;;;3.65;1.42;;;;;;;;;;5402743;26;20039;-62
2024/04/10 09:55:02;;;;;;;4.65;1.38;;;;;;;;;;5415023;26;20011;-63
2024/04/10 09:57:29;;;;;;;4.85;1.75;;;;;;;;;;5414079;26;20359;-66
2024/04/10 09:59:55;;;;;;;6.88;1.65;;;;;;;;;;5384047;26;20000;-66
2024/04/10 10:02:21;;;;;;;6.07;1.77;;;;;;;;;;5413825;26;19999;-64
2024/04/10 10:04:47;;;;;;;7.07;1.67;;;;;;;;;;5407025;26;20025;-64
2024/04/10 10:07:20;;;;;;;7.93;1.38;;;;;;;;;;5397472;26;20007;-64
2024/04/10 10:09:46;;;;;;;5.03;1.92;;;;;;;;;;5414823;26;19995;-64
2024/04/10 10:12:12;;;;;;;4.57;1.90;;;;;;;;;;5414154;26;20340;-64
2024/04/10 10:14:38;;;;;;;12.20;2.08;;;;;;;;;;5404645;26;20004;-63
2024/04/10 10:17:06;;;;;;;5.68;2.17;;;;;;;;;;5413116;26;20022;-59
2024/04/10 10:19:35;;;;;;;4.35;1.52;;;;;;;;;;5415992;26;20021;-63
2024/04/10 10:22:01;;;;;;;9.90;1.85;;;;;;;;;;5417883;26;20003;-64
2024/04/10 10:24:29;;;;;;;5.97;1.40;;;;;;;;;;5418756;26;20465;-56
2024/04/10 10:26:59;;;;;;;9.48;1.88;;;;;;;;;;5416440;26;20015;-63
2024/04/10 10:29:27;;;;;;;7.32;2.33;;;;;;;;;;5417132;26;20019;-61
2024/04/10 10:32:05;;;;;;;8.63;2.10;;;;;;;;;;5414900;26;20628;-62
2024/04/10 10:34:32;;;;;;;10.48;2.17;;;;;;;;;;5414577;26;20036;-57
2024/04/10 10:37:07;;;;;;;18.48;2.53;;;;;;;;;;5414875;26;20020;-54
2024/04/10 10:39:33;;;;;;;13.75;2.17;;;;;;;;;;5414620;26;20039;-60
2024/04/10 10:42:00;;;;;;;26.58;3.03;;;;;;;;;;5414402;26;20018;-57
2024/04/10 10:44:26;;;;;;;20.90;3.00;;;;;;;;;;5414550;26;20011;-57
2024/04/10 10:46:52;;;;;;;20.75;3.38;;;;;;;;;;5414598;26;20003;-53
2024/04/10 10:49:18;;;;;;;18.35;2.78;;;;;;;;;;5409165;26;20340;-64
2024/04/10 10:51:44;;;;;;;16.25;3.08;;;;;;;;;;5383656;26;20442;-64
2024/04/10 10:54:10;;;;;;;6.38;1.77;;;;;;;;;;5401130;26;20019;-64
2024/04/10 10:56:36;;;;;;;6.80;1.10;;;;;;;;;;5414357;26;19999;-64
2024/04/10 10:59:08;;;;;;;3.40;0.95;;;;;;;;;;5407515;26;20006;-64
2024/04/10 11:01:35;;;;;;;4.43;1.20;;;;;;;;;;5414098;26;20101;-64
2024/04/10 11:04:10;;;;;;;3.05;1.25;;;;;;;;;;5414315;26;19996;-64
2024/04/10 11:06:37;;;;;;;7.00;1.65;;;;;;;;;;5408107;26;20046;-64
2024/04/10 11:09:16;;;;;;;4.88;1.35;;;;;;;;;;5408714;26;20008;-64
2024/04/10 11:11:42;;;;;;;4.72;1.08;;;;;;;;;;5413668;26;20382;-64
2024/04/10 11:14:13;;;;;;;4.72;1.83;;;;;;;;;;5401549;26;20019;-64
2024/04/10 11:16:40;;;;;;;6.10;1.50;;;;;;;;;;5414010;26;20037;-64
2024/04/10 11:19:07;;;;;;;4.22;1.17;;;;;;;;;;5413515;26;20459;-61
2024/04/10 11:21:33;;;;;;;4.90;1.33;;;;;;;;;;5413657;26;20012;-63
2024/04/10 11:23:59;;;;;;;5.32;1.33;;;;;;;;;;5414141;26;20003;-64
2024/04/10 11:26:26;;;;;;;4.20;1.38;;;;;;;;;;5408530;26;20000;-64
2024/04/10 11:28:55;;;;;;;6.57;1.90;;;;;;;;;;5391204;26;19995;-63
2024/04/10 11:31:21;;;;;;;2.63;1.90;;;;;;;;;;5395413;26;20011;-63
2024/04/10 11:33:47;;;;;;;12.07;8.85;;;;;;;;;;5405307;26;19999;-64
2024/04/10 11:36:14;;;;;;;8.70;6.13;;;;;;;;;;5409875;26;20068;-64
2024/04/10 11:38:42;;;;;;;11.65;8.52;;;;;;;;;;5401110;26;20028;-63
2024/04/10 11:41:14;;;;;;;13.20;9.73;;;;;;;;;;5380249;26;20004;-63
2024/04/10 11:43:40;;;;;;;13.60;8.75;;;;;;;;;;5395454;26;20006;-63
2024/04/10 11:46:09;;;;;;;9.95;6.57;;;;;;;;;;5412947;26;20011;-64
2024/04/10 11:48:35;;;;;;;7.85;5.90;;;;;;;;;;5405902;26;20003;-64
2024/04/10 11:51:01;;;;;;;11.50;5.93;;;;;;;;;;5412907;26;20015;-63
2024/04/10 11:53:28;;;;;;;14.73;9.73;;;;;;;;;;5397064;26;20018;-67
2024/04/10 11:55:54;;;;;;;29.42;17.10;;;;;;;;;;5376988;26;20016;-64
2024/04/10 11:58:20;;;;;;;93.35;41.47;;;;;;;;;;5385469;26;20018;-66
2024/04/10 12:00:46;;;;;;;67.45;32.50;;;;;;;;;;5381532;26;20015;-65
2024/04/10 12:03:12;;;;;;;68.55;33.80;;;;;;;;;;5384543;26;20010;-65
2024/04/10 12:05:38;;;;;;;50.75;27.63;;;;;;;;;;5384853;26;20070;-66
2024/04/10 12:08:04;;;;;;;47.40;27.73;;;;;;;;;;5386108;26;20012;-66
2024/04/10 12:10:32;;;;;;;56.55;28.77;;;;;;;;;;5383252;26;20015;-65
2024/04/10 12:13:03;;;;;;;54.30;27.92;;;;;;;;;;5389376;26;20374;-64
2024/04/10 12:15:29;;;;;;;;;;;;;;;;;;5388526;26;20005;-64
2024/04/10 12:17:55;;;;;;;118.00;59.50;;;;;;;;;;5404771;26;19925;-63
2024/04/10 12:20:23;;;;;;;109.10;55.83;;;;;;;;;;5397700;21;20067;-64
2024/04/10 12:22:50;;;;;;;89.95;48.78;;;;;;;;;;5341696;26;20013;-63
2024/04/10 12:25:17;;;;;;;90.78;46.17;;;;;;;;;;5360220;26;20444;-63
2024/04/10 12:27:45;;;;;;;82.97;43.05;;;;;;;;;;5346280;26;20015;-67
2024/04/10 12:30:11;;;;;;;76.43;37.97;;;;;;;;;;5344173;26;20056;-63
2024/04/10 12:32:37;;;;;;;73.25;36.53;;;;;;;;;;5346564;26;20477;-59
2024/04/10 12:38:03;;;;;;;70.63;32.55;;;;;;;;;;5345711;26;20016;-65
2024/04/10 12:40:29;;;;;;;52.50;28.15;;;;;;;;;;5332260;26;20075;-68
2024/04/10 12:42:55;;;;;;;58.88;29.48;;;;;;;;;;5345271;26;20021;-63
2024/04/10 12:45:23;;;;;;;64.25;28.42;;;;;;;;;;5345726;26;20012;-66
2024/04/10 12:47:49;;;;;;;58.65;26.27;;;;;;;;;;5345563;26;20011;-67
2024/04/10 12:50:15;;;;;;;50.40;25.65;;;;;;;;;;5345603;26;20005;-68
2024/04/10 12:52:41;;;;;;;58.72;21.88;;;;;;;;;;5346088;26;20005;-64
2024/04/10 12:55:08;;;;;;;46.20;21.25;;;;;;;;;;5345806;26;20468;-62
2024/04/10 12:57:35;;;;;;;54.92;22.08;;;;;;;;;;5345910;26;20013;-60
2024/04/10 13:00:01;;;;;;;48.03;21.35;;;;;;;;;;5346086;26;20011;-67
2024/04/10 13:02:28;;;;;;;46.65;19.88;;;;;;;;;;5345254;26;20001;-63
2024/04/10 13:04:54;;;;;;;47.15;20.35;;;;;;;;;;5345503;26;20019;-61
2024/04/10 13:07:20;;;;;;;47.75;21.65;;;;;;;;;;5343281;26;20044;-59
2024/04/10 13:09:50;;;;;;;43.95;20.25;;;;;;;;;;5336264;26;20508;-61
2024/04/10 13:12:16;;;;;;;44.15;20.80;;;;;;;;;;5345005;26;20036;-61
2024/04/10 13:14:43;;;;;;;43.53;19.33;;;;;;;;;;5344690;26;20015;-61
2024/04/10 13:17:09;;;;;;;41.22;20.23;;;;;;;;;;5344209;26;20381;-61
2024/04/10 13:19:35;;;;;;;41.33;18.50;;;;;;;;;;5343636;26;20001;-61
2024/04/10 13:22:02;;;;;;;36.17;18.50;;;;;;;;;;5345045;26;20507;-63
2024/04/10 13:24:27;;;;;;;42.67;17.85;;;;;;;;;;5345749;26;20005;-63
2024/04/10 13:26:54;;;;;;;39.25;17.48;;;;;;;;;;5345182;26;20001;-63
2024/04/10 13:29:20;;;;;;;35.20;16.52;;;;;;;;;;5345292;26;19997;-66
2024/04/10 13:31:46;;;;;;;33.67;16.25;;;;;;;;;;5344886;26;20429;-64
2024/04/10 13:34:13;;;;;;;36.10;17.08;;;;;;;;;;5345221;26;20011;-61
2024/04/10 13:36:39;;;;;;;44.15;14.73;;;;;;;;;;5345456;26;20008;-64
2024/04/10 13:39:05;;;;;;;40.35;15.80;;;;;;;;;;5345216;26;20357;-64
2024/04/10 13:41:32;;;;;;;34.67;14.32;;;;;;;;;;5344927;26;20013;-60
2024/04/10 13:43:59;;;;;;;30.35;13.35;;;;;;;;;;5343391;26;20020;-63
2024/04/10 13:46:25;;;;;;;28.38;13.35;;;;;;;;;;5344616;26;20019;-61
2024/04/10 13:48:52;;;;;;;37.03;14.32;;;;;;;;;;5345123;26;20004;-64
2024/04/10 13:51:24;;;;;;;28.10;12.90;;;;;;;;;;5344835;26;20028;-62
2024/04/10 13:53:50;;;;;;;36.10;12.20;;;;;;;;;;5344860;26;20112;-62
2024/04/10 13:56:16;;;;;;;28.73;12.25;;;;;;;;;;5345013;26;20001;-62
2024/04/10 13:58:42;;;;;;;30.77;12.15;;;;;;;;;;5344813;26;20005;-60
2024/04/10 14:01:11;;;;;;;26.80;11.10;;;;;;;;;;5344834;26;20036;-61
2024/04/10 14:03:37;;;;;;;29.92;10.68;;;;;;;;;;5344714;26;20016;-63
2024/04/10 14:06:04;;;;;;;20.13;5.47;;;;;;;;;;5344762;26;20078;-62
2024/04/10 14:08:30;;;;;;;16.52;6.55;;;;;;;;;;5344942;26;20524;-65
2024/04/10 14:10:59;;;;;;;28.30;9.45;;;;;;;;;;5344572;26;20015;-65
2024/04/10 14:13:25;;;;;;;23.80;9.57;;;;;;;;;;5344048;26;20001;-64
2024/04/10 14:15:54;;;;;;;27.35;9.57;;;;;;;;;;5343917;26;20043;-63
2024/04/10 14:18:20;;;;;;;23.15;8.98;;;;;;;;;;5341916;26;20016;-65
2024/04/10 14:20:47;;;;;;;18.83;9.10;;;;;;;;;;5343588;26;20079;-65
2024/04/10 14:23:13;;;;;;;21.15;8.43;;;;;;;;;;5344224;26;20070;-64
2024/04/10 14:25:40;;;;;;;24.27;8.52;;;;;;;;;;5343006;26;20024;-65
2024/04/10 14:28:06;;;;;;;16.02;7.90;;;;;;;;;;5344287;26;20015;-65
2024/04/10 14:30:32;;;;;;;20.98;8.27;;;;;;;;;;5346998;26;20009;-67
2024/04/10 14:33:00;;;;;;;25.52;8.40;;;;;;;;;;5360518;26;20005;-70
2024/04/10 14:35:26;;;;;;;23.95;7.45;;;;;;;;;;5359105;26;20053;-69
2024/04/10 14:37:52;;;;;;;17.27;7.78;;;;;;;;;;5355566;26;20000;-71